Terminal Aerodrome Forecast
Issued by NWS Duluth, MN

Home | Current Version | Previous Version | Text Only | Print | Product List | Glossary On
Versions: 1 2 3 4 5 6 7 8 9 10 11 12 13 14 15 16 17 18
000
FTUS43 KDLH 231100
TAFINL
TAF
KINL 231134Z 2312/2412 01004KT P6SM BKN050
     FM231600 01006KT P6SM SCT040
      TEMPO 2318/2322 BKN040
     FM240100 VRB03KT P6SM FEW040=

USA.gov is the U.S. government's official web portal to all federal, state and local government web resources and services.